Paso de Indios, Argentina
Current Conditions -  °F | °C
As of 9:00 PM on Thursday 18 Dec 2014 (Local Time) from SCAP Reporting Station
Clear Clear  
Wind Chill: 55°   Ceiling: Unl
Heat Index: 55°   Visibility: NA
Dew Point: 48°   Wind: 13mph
Humidity: 77%   Direction: NA
Pressure: 29.68"   Gusts: 28mph
Location:  43.86°S, 69.05°W
Report Text: SCAP 190000Z AUTO VRB11G24KT //// // NSC 13/09 Q1005
Loading
Personal Weather Stations






























Interactive Weather Map New forecast layout! Learn more

10-Day Weather Forecast

Advertisements
Track Severe Weather on mobile